sensor_id;sensor_type;location;lat;lon;timestamp;pressure;altitude;pressure_sealevel;temperature;humidity
75247;BME280;63844;50.042;19.224;2023-05-10T00:02:12;99266.70;;;8.09;61.94
75247;BME280;63844;50.042;19.224;2023-05-10T00:04:38;99270.95;;;8.02;62.58
75247;BME280;63844;50.042;19.224;2023-05-10T00:07:05;99273.41;;;7.98;62.88
75247;BME280;63844;50.042;19.224;2023-05-10T00:09:31;99272.93;;;7.94;62.91
75247;BME280;63844;50.042;19.224;2023-05-10T00:11:57;99266.83;;;7.89;62.77
75247;BME280;63844;50.042;19.224;2023-05-10T00:14:24;99267.30;;;7.83;63.99
75247;BME280;63844;50.042;19.224;2023-05-10T00:16:51;99268.13;;;7.81;63.70
75247;BME280;63844;50.042;19.224;2023-05-10T00:19:17;99266.98;;;7.79;63.69
75247;BME280;63844;50.042;19.224;2023-05-10T00:21:44;99267.92;;;7.74;63.72
75247;BME280;63844;50.042;19.224;2023-05-10T00:24:10;99266.97;;;7.72;63.30
75247;BME280;63844;50.042;19.224;2023-05-10T00:26:37;99262.69;;;7.70;63.72
75247;BME280;63844;50.042;19.224;2023-05-10T00:29:03;99260.64;;;7.68;64.27
75247;BME280;63844;50.042;19.224;2023-05-10T00:31:30;99265.55;;;7.69;64.16
75247;BME280;63844;50.042;19.224;2023-05-10T00:33:56;99261.54;;;7.68;63.76
75247;BME280;63844;50.042;19.224;2023-05-10T00:36:23;99262.84;;;7.67;63.98
75247;BME280;63844;50.042;19.224;2023-05-10T00:38:49;99257.14;;;7.64;64.02
75247;BME280;63844;50.042;19.224;2023-05-10T00:41:16;99259.84;;;7.60;62.86
75247;BME280;63844;50.042;19.224;2023-05-10T00:43:42;99257.21;;;7.56;63.33
75247;BME280;63844;50.042;19.224;2023-05-10T00:46:09;99258.07;;;7.53;63.10
75247;BME280;63844;50.042;19.224;2023-05-10T00:48:36;99252.29;;;7.49;64.13
75247;BME280;63844;50.042;19.224;2023-05-10T00:51:03;99251.13;;;7.44;64.34
75247;BME280;63844;50.042;19.224;2023-05-10T00:53:31;99256.34;;;7.34;64.46
75247;BME280;63844;50.042;19.224;2023-05-10T00:55:59;99252.71;;;7.29;64.81
75247;BME280;63844;50.042;19.224;2023-05-10T00:58:26;99248.65;;;7.26;65.59
75247;BME280;63844;50.042;19.224;2023-05-10T01:00:55;99249.34;;;7.26;64.20
75247;BME280;63844;50.042;19.224;2023-05-10T01:03:23;99249.27;;;7.20;64.38
75247;BME280;63844;50.042;19.224;2023-05-10T01:05:49;99248.49;;;7.18;64.43
75247;BME280;63844;50.042;19.224;2023-05-10T01:08:16;99248.89;;;7.13;65.83
75247;BME280;63844;50.042;19.224;2023-05-10T01:10:43;99249.42;;;7.10;65.42
75247;BME280;63844;50.042;19.224;2023-05-10T01:13:10;99243.45;;;7.06;65.89
75247;BME280;63844;50.042;19.224;2023-05-10T01:15:37;99242.42;;;7.02;65.95
75247;BME280;63844;50.042;19.224;2023-05-10T01:18:05;99242.41;;;6.98;66.48
75247;BME280;63844;50.042;19.224;2023-05-10T01:20:40;99241.14;;;6.95;66.65
75247;BME280;63844;50.042;19.224;2023-05-10T01:23:30;99235.04;;;6.93;65.44
75247;BME280;63844;50.042;19.224;2023-05-10T01:26:14;99233.98;;;6.93;68.17
75247;BME280;63844;50.042;19.224;2023-05-10T01:29:10;99237.17;;;6.90;67.05
75247;BME280;63844;50.042;19.224;2023-05-10T01:35:06;99234.75;;;6.92;68.60
75247;BME280;63844;50.042;19.224;2023-05-10T01:37:41;99236.55;;;6.91;67.02
75247;BME280;63844;50.042;19.224;2023-05-10T01:40:30;99233.42;;;6.91;68.28
75247;BME280;63844;50.042;19.224;2023-05-10T01:43:04;99230.02;;;6.88;68.21
75247;BME280;63844;50.042;19.224;2023-05-10T01:45:41;99229.77;;;6.90;67.67
75247;BME280;63844;50.042;19.224;2023-05-10T01:48:14;99229.99;;;6.89;66.96
75247;BME280;63844;50.042;19.224;2023-05-10T01:50:43;99226.52;;;6.84;68.00
75247;BME280;63844;50.042;19.224;2023-05-10T01:53:12;99223.14;;;6.81;67.50
75247;BME280;63844;50.042;19.224;2023-05-10T01:55:51;99220.94;;;6.79;67.18
75247;BME280;63844;50.042;19.224;2023-05-10T01:58:23;99219.70;;;6.76;68.82
75247;BME280;63844;50.042;19.224;2023-05-10T02:00:52;99216.03;;;6.75;67.33
75247;BME280;63844;50.042;19.224;2023-05-10T02:03:24;99218.60;;;6.69;68.06
75247;BME280;63844;50.042;19.224;2023-05-10T02:05:53;99211.23;;;6.65;67.69
75247;BME280;63844;50.042;19.224;2023-05-10T02:08:21;99209.73;;;6.64;68.52
75247;BME280;63844;50.042;19.224;2023-05-10T02:10:50;99208.52;;;6.59;68.39
75247;BME280;63844;50.042;19.224;2023-05-10T02:13:18;99205.03;;;6.59;68.29
75247;BME280;63844;50.042;19.224;2023-05-10T02:15:48;99203.91;;;6.60;68.58
75247;BME280;63844;50.042;19.224;2023-05-10T02:18:15;99196.11;;;6.58;68.56
75247;BME280;63844;50.042;19.224;2023-05-10T02:20:44;99200.30;;;6.54;67.97
75247;BME280;63844;50.042;19.224;2023-05-10T02:23:12;99195.23;;;6.53;68.36
75247;BME280;63844;50.042;19.224;2023-05-10T02:25:40;99196.32;;;6.49;67.91
75247;BME280;63844;50.042;19.224;2023-05-10T02:28:10;99200.28;;;6.43;68.12
75247;BME280;63844;50.042;19.224;2023-05-10T02:30:38;99197.83;;;6.39;68.97
75247;BME280;63844;50.042;19.224;2023-05-10T02:33:05;99197.20;;;6.37;69.22
75247;BME280;63844;50.042;19.224;2023-05-10T02:35:32;99196.66;;;6.38;69.84
75247;BME280;63844;50.042;19.224;2023-05-10T02:38:00;99195.88;;;6.39;68.88
75247;BME280;63844;50.042;19.224;2023-05-10T02:40:27;99192.89;;;6.36;68.81
75247;BME280;63844;50.042;19.224;2023-05-10T02:42:56;99195.91;;;6.35;68.71
75247;BME280;63844;50.042;19.224;2023-05-10T02:45:26;99195.34;;;6.32;68.36
75247;BME280;63844;50.042;19.224;2023-05-10T02:47:54;99201.30;;;6.28;68.82
75247;BME280;63844;50.042;19.224;2023-05-10T02:50:22;99199.05;;;6.24;69.25
75247;BME280;63844;50.042;19.224;2023-05-10T02:52:54;99201.05;;;6.22;68.66
75247;BME280;63844;50.042;19.224;2023-05-10T02:55:25;99197.51;;;6.19;69.35
75247;BME280;63844;50.042;19.224;2023-05-10T02:57:59;99196.14;;;6.14;70.18
75247;BME280;63844;50.042;19.224;2023-05-10T03:00:26;99197.78;;;6.13;68.84
75247;BME280;63844;50.042;19.224;2023-05-10T03:02:53;99199.02;;;6.05;70.10
75247;BME280;63844;50.042;19.224;2023-05-10T03:05:20;99202.52;;;6.01;69.81
75247;BME280;63844;50.042;19.224;2023-05-10T03:07:46;99199.74;;;5.96;70.64
75247;BME280;63844;50.042;19.224;2023-05-10T03:10:13;99203.65;;;5.99;70.13
75247;BME280;63844;50.042;19.224;2023-05-10T03:12:44;99200.80;;;5.96;69.73
75247;BME280;63844;50.042;19.224;2023-05-10T03:15:30;99202.55;;;5.96;69.65
75247;BME280;63844;50.042;19.224;2023-05-10T03:18:09;99200.77;;;5.92;69.90
75247;BME280;63844;50.042;19.224;2023-05-10T03:20:47;99200.73;;;5.94;69.64
75247;BME280;63844;50.042;19.224;2023-05-10T03:25:46;99203.48;;;5.95;69.57
75247;BME280;63844;50.042;19.224;2023-05-10T03:28:14;99203.42;;;5.96;69.72
75247;BME280;63844;50.042;19.224;2023-05-10T03:30:43;99203.40;;;5.97;69.59
75247;BME280;63844;50.042;19.224;2023-05-10T03:33:10;99202.84;;;5.94;70.73
75247;BME280;63844;50.042;19.224;2023-05-10T03:35:37;99204.00;;;5.95;70.47
75247;BME280;63844;50.042;19.224;2023-05-10T03:38:03;99206.02;;;5.97;69.86
75247;BME280;63844;50.042;19.224;2023-05-10T03:40:30;99205.44;;;5.99;70.10
75247;BME280;63844;50.042;19.224;2023-05-10T03:42:59;99205.36;;;6.00;70.31
75247;BME280;63844;50.042;19.224;2023-05-10T03:45:26;99196.83;;;6.03;70.49
75247;BME280;63844;50.042;19.224;2023-05-10T03:47:52;99197.86;;;6.07;70.24
75247;BME280;63844;50.042;19.224;2023-05-10T03:50:19;99198.30;;;6.05;70.11
75247;BME280;63844;50.042;19.224;2023-05-10T03:52:46;99196.84;;;6.06;70.15
75247;BME280;63844;50.042;19.224;2023-05-10T03:55:12;99195.65;;;6.09;69.92
75247;BME280;63844;50.042;19.224;2023-05-10T03:57:39;99194.69;;;6.11;70.41
75247;BME280;63844;50.042;19.224;2023-05-10T04:00:06;99195.46;;;6.14;70.37
75247;BME280;63844;50.042;19.224;2023-05-10T04:02:32;99199.67;;;6.18;69.41
75247;BME280;63844;50.042;19.224;2023-05-10T04:04:59;99197.42;;;6.17;70.83
75247;BME280;63844;50.042;19.224;2023-05-10T04:07:25;99200.52;;;6.23;69.76
75247;BME280;63844;50.042;19.224;2023-05-10T04:09:52;99203.06;;;6.25;69.77
75247;BME280;63844;50.042;19.224;2023-05-10T04:12:18;99191.73;;;6.27;70.28
75247;BME280;63844;50.042;19.224;2023-05-10T04:14:45;99198.69;;;6.32;69.80
75247;BME280;63844;50.042;19.224;2023-05-10T04:17:11;99195.88;;;6.36;69.98
75247;BME280;63844;50.042;19.224;2023-05-10T04:19:38;99201.50;;;6.43;69.61
75247;BME280;63844;50.042;19.224;2023-05-10T04:22:04;99198.80;;;6.49;69.52
75247;BME280;63844;50.042;19.224;2023-05-10T04:24:31;99199.71;;;6.51;69.17
75247;BME280;63844;50.042;19.224;2023-05-10T04:26:57;99200.64;;;6.54;69.27
75247;BME280;63844;50.042;19.224;2023-05-10T04:29:24;99200.23;;;6.60;68.92
75247;BME280;63844;50.042;19.224;2023-05-10T04:31:50;99200.33;;;6.65;69.01
75247;BME280;63844;50.042;19.224;2023-05-10T04:34:17;99199.09;;;6.73;68.79
75247;BME280;63844;50.042;19.224;2023-05-10T04:36:43;99202.96;;;6.80;68.27
75247;BME280;63844;50.042;19.224;2023-05-10T04:39:10;99200.61;;;6.85;68.36
75247;BME280;63844;50.042;19.224;2023-05-10T04:41:37;99205.77;;;6.87;68.23
75247;BME280;63844;50.042;19.224;2023-05-10T04:44:04;99206.71;;;6.94;68.22
75247;BME280;63844;50.042;19.224;2023-05-10T04:46:30;99202.58;;;7.00;67.86
75247;BME280;63844;50.042;19.224;2023-05-10T04:48:57;99203.10;;;7.04;68.03
75247;BME280;63844;50.042;19.224;2023-05-10T04:51:23;99203.48;;;7.07;68.19
75247;BME280;63844;50.042;19.224;2023-05-10T04:53:50;99200.45;;;7.14;67.91
75247;BME280;63844;50.042;19.224;2023-05-10T04:56:16;99196.17;;;7.19;67.86
75247;BME280;63844;50.042;19.224;2023-05-10T04:58:43;99199.81;;;7.27;67.13
75247;BME280;63844;50.042;19.224;2023-05-10T05:01:10;99198.52;;;7.35;67.48
75247;BME280;63844;50.042;19.224;2023-05-10T05:03:36;99196.95;;;7.42;67.38
75247;BME280;63844;50.042;19.224;2023-05-10T05:06:03;99196.65;;;7.49;67.24
75247;BME280;63844;50.042;19.224;2023-05-10T05:08:30;99196.40;;;7.57;66.83
75247;BME280;63844;50.042;19.224;2023-05-10T05:10:56;99192.34;;;7.67;66.33
75247;BME280;63844;50.042;19.224;2023-05-10T05:13:23;99190.19;;;7.72;66.30
75247;BME280;63844;50.042;19.224;2023-05-10T05:15:49;99189.23;;;7.76;66.43
75247;BME280;63844;50.042;19.224;2023-05-10T05:18:16;99186.31;;;7.82;66.21
75247;BME280;63844;50.042;19.224;2023-05-10T05:20:42;99185.91;;;7.94;65.88
75247;BME280;63844;50.042;19.224;2023-05-10T05:23:09;99185.20;;;7.97;65.59
75247;BME280;63844;50.042;19.224;2023-05-10T05:25:35;99181.16;;;8.06;65.26
75247;BME280;63844;50.042;19.224;2023-05-10T05:28:02;99178.73;;;8.16;65.17
75247;BME280;63844;50.042;19.224;2023-05-10T05:30:28;99175.48;;;8.21;64.76
75247;BME280;63844;50.042;19.224;2023-05-10T05:32:55;99177.20;;;8.27;64.93
75247;BME280;63844;50.042;19.224;2023-05-10T05:35:21;99176.16;;;8.34;65.13
75247;BME280;63844;50.042;19.224;2023-05-10T05:37:48;99179.26;;;8.46;65.13
75247;BME280;63844;50.042;19.224;2023-05-10T05:40:14;99176.91;;;8.57;65.00
75247;BME280;63844;50.042;19.224;2023-05-10T05:42:41;99174.48;;;8.68;64.73
75247;BME280;63844;50.042;19.224;2023-05-10T05:45:08;99177.63;;;8.79;64.66
75247;BME280;63844;50.042;19.224;2023-05-10T05:47:35;99177.45;;;8.91;64.40
75247;BME280;63844;50.042;19.224;2023-05-10T05:50:01;99175.60;;;9.02;64.07
75247;BME280;63844;50.042;19.224;2023-05-10T05:52:27;99178.11;;;9.11;63.84
75247;BME280;63844;50.042;19.224;2023-05-10T05:54:54;99178.71;;;9.22;63.67
75247;BME280;63844;50.042;19.224;2023-05-10T05:57:20;99178.17;;;9.29;62.90
75247;BME280;63844;50.042;19.224;2023-05-10T05:59:47;99179.86;;;9.39;62.50
75247;BME280;63844;50.042;19.224;2023-05-10T06:02:14;99184.52;;;9.50;62.85
75247;BME280;63844;50.042;19.224;2023-05-10T06:04:41;99185.48;;;9.57;62.72
75247;BME280;63844;50.042;19.224;2023-05-10T06:07:07;99181.95;;;9.66;62.36
75247;BME280;63844;50.042;19.224;2023-05-10T06:09:34;99184.25;;;9.75;61.21
75247;BME280;63844;50.042;19.224;2023-05-10T06:12:00;99180.71;;;9.87;61.41
75247;BME280;63844;50.042;19.224;2023-05-10T06:14:27;99176.97;;;9.94;61.28
75247;BME280;63844;50.042;19.224;2023-05-10T06:16:54;99176.54;;;10.04;61.46
75247;BME280;63844;50.042;19.224;2023-05-10T06:19:20;99176.20;;;10.15;61.33
75247;BME280;63844;50.042;19.224;2023-05-10T06:21:47;99175.13;;;10.24;61.41
75247;BME280;63844;50.042;19.224;2023-05-10T06:24:13;99172.92;;;10.34;61.29
75247;BME280;63844;50.042;19.224;2023-05-10T06:26:40;99173.63;;;10.48;60.86
75247;BME280;63844;50.042;19.224;2023-05-10T06:29:06;99170.89;;;10.58;60.42
75247;BME280;63844;50.042;19.224;2023-05-10T06:31:33;99172.34;;;10.69;60.49
75247;BME280;63844;50.042;19.224;2023-05-10T06:33:59;99174.74;;;10.87;59.33
75247;BME280;63844;50.042;19.224;2023-05-10T06:36:26;99172.43;;;10.97;59.46
75247;BME280;63844;50.042;19.224;2023-05-10T06:38:53;99169.95;;;11.06;59.10
75247;BME280;63844;50.042;19.224;2023-05-10T06:41:20;99170.84;;;11.14;58.65
75247;BME280;63844;50.042;19.224;2023-05-10T06:43:47;99167.46;;;11.25;58.25
75247;BME280;63844;50.042;19.224;2023-05-10T06:46:13;99165.01;;;11.35;57.37
75247;BME280;63844;50.042;19.224;2023-05-10T06:48:40;99160.39;;;11.46;57.10
75247;BME280;63844;50.042;19.224;2023-05-10T06:51:06;99154.69;;;11.52;57.57
75247;BME280;63844;50.042;19.224;2023-05-10T06:53:33;99153.06;;;11.63;56.69
75247;BME280;63844;50.042;19.224;2023-05-10T06:55:59;99157.36;;;11.75;57.16
75247;BME280;63844;50.042;19.224;2023-05-10T06:58:25;99159.73;;;11.90;56.73
75247;BME280;63844;50.042;19.224;2023-05-10T07:00:52;99153.65;;;12.04;56.02
75247;BME280;63844;50.042;19.224;2023-05-10T07:03:18;99155.71;;;12.12;55.88
75247;BME280;63844;50.042;19.224;2023-05-10T07:05:45;99158.98;;;12.29;56.28
75247;BME280;63844;50.042;19.224;2023-05-10T07:08:11;99155.77;;;12.37;55.04
75247;BME280;63844;50.042;19.224;2023-05-10T07:10:39;99155.95;;;12.47;55.42
75247;BME280;63844;50.042;19.224;2023-05-10T07:13:05;99156.17;;;12.61;55.29
75247;BME280;63844;50.042;19.224;2023-05-10T07:15:32;99156.58;;;12.68;54.62
75247;BME280;63844;50.042;19.224;2023-05-10T07:17:59;99155.48;;;12.75;54.30
75247;BME280;63844;50.042;19.224;2023-05-10T07:20:26;99157.89;;;12.81;54.70
75247;BME280;63844;50.042;19.224;2023-05-10T07:22:52;99155.52;;;12.92;53.96
75247;BME280;63844;50.042;19.224;2023-05-10T07:25:19;99157.66;;;12.99;54.21
75247;BME280;63844;50.042;19.224;2023-05-10T07:27:45;99153.67;;;13.08;53.43
75247;BME280;63844;50.042;19.224;2023-05-10T07:30:14;99150.76;;;13.18;53.65
75247;BME280;63844;50.042;19.224;2023-05-10T07:32:41;99146.96;;;13.31;53.68
75247;BME280;63844;50.042;19.224;2023-05-10T07:35:08;99144.77;;;13.46;53.02
75247;BME280;63844;50.042;19.224;2023-05-10T07:37:34;99140.55;;;13.53;52.97
75247;BME280;63844;50.042;19.224;2023-05-10T07:40:01;99144.98;;;13.67;53.27
75247;BME280;63844;50.042;19.224;2023-05-10T07:42:28;99144.58;;;13.77;52.94
75247;BME280;63844;50.042;19.224;2023-05-10T07:44:54;99138.18;;;13.93;52.31
75247;BME280;63844;50.042;19.224;2023-05-10T07:47:21;99137.17;;;14.01;52.43
75247;BME280;63844;50.042;19.224;2023-05-10T07:49:47;99140.73;;;14.15;52.32
75247;BME280;63844;50.042;19.224;2023-05-10T07:52:14;99137.82;;;14.25;51.43
75247;BME280;63844;50.042;19.224;2023-05-10T07:54:40;99134.41;;;14.39;51.12
75247;BME280;63844;50.042;19.224;2023-05-10T07:57:07;99133.61;;;14.44;50.67
75247;BME280;63844;50.042;19.224;2023-05-10T07:59:33;99131.40;;;14.54;49.92
75247;BME280;63844;50.042;19.224;2023-05-10T08:02:00;99136.85;;;14.67;50.40
75247;BME280;63844;50.042;19.224;2023-05-10T08:04:26;99137.54;;;14.73;50.01
75247;BME280;63844;50.042;19.224;2023-05-10T08:06:53;99130.89;;;14.83;49.77
75247;BME280;63844;50.042;19.224;2023-05-10T08:09:19;99131.05;;;14.94;49.08
75247;BME280;63844;50.042;19.224;2023-05-10T08:11:50;99129.69;;;15.06;48.34
75247;BME280;63844;50.042;19.224;2023-05-10T08:14:17;99130.16;;;15.18;48.73
75247;BME280;63844;50.042;19.224;2023-05-10T08:16:43;99125.45;;;15.25;48.27
75247;BME280;63844;50.042;19.224;2023-05-10T08:19:10;99123.08;;;15.30;47.17
75247;BME280;63844;50.042;19.224;2023-05-10T08:21:36;99124.04;;;15.40;47.04
75247;BME280;63844;50.042;19.224;2023-05-10T08:24:03;99115.14;;;15.52;46.03
75247;BME280;63844;50.042;19.224;2023-05-10T08:26:33;99114.13;;;15.56;44.95
75247;BME280;63844;50.042;19.224;2023-05-10T08:28:59;99111.95;;;15.65;44.82
75247;BME280;63844;50.042;19.224;2023-05-10T08:31:26;99113.38;;;15.72;44.68
75247;BME280;63844;50.042;19.224;2023-05-10T08:33:52;99114.36;;;15.73;44.12
75247;BME280;63844;50.042;19.224;2023-05-10T08:36:19;99114.73;;;15.81;44.33
75247;BME280;63844;50.042;19.224;2023-05-10T08:38:50;99112.36;;;15.90;44.43
75247;BME280;63844;50.042;19.224;2023-05-10T08:41:20;99110.23;;;15.96;43.73
75247;BME280;63844;50.042;19.224;2023-05-10T08:43:51;99110.77;;;16.02;42.42
75247;BME280;63844;50.042;19.224;2023-05-10T08:46:20;99108.36;;;16.07;42.70
75247;BME280;63844;50.042;19.224;2023-05-10T08:48:47;99107.47;;;16.09;42.08
75247;BME280;63844;50.042;19.224;2023-05-10T08:51:18;99109.56;;;16.16;41.86
75247;BME280;63844;50.042;19.224;2023-05-10T08:53:45;99107.48;;;16.23;42.63
75247;BME280;63844;50.042;19.224;2023-05-10T08:56:12;99105.08;;;16.34;42.65
75247;BME280;63844;50.042;19.224;2023-05-10T08:58:38;99107.64;;;16.44;43.75
75247;BME280;63844;50.042;19.224;2023-05-10T09:01:05;99111.82;;;16.55;42.41
75247;BME280;63844;50.042;19.224;2023-05-10T09:03:31;99111.95;;;16.54;41.31
75247;BME280;63844;50.042;19.224;2023-05-10T09:05:58;99109.14;;;16.61;41.84
75247;BME280;63844;50.042;19.224;2023-05-10T09:08:25;99109.13;;;16.69;41.22
75247;BME280;63844;50.042;19.224;2023-05-10T09:10:53;99109.27;;;16.73;40.11
75247;BME280;63844;50.042;19.224;2023-05-10T09:13:21;99103.48;;;16.76;40.18
75247;BME280;63844;50.042;19.224;2023-05-10T09:15:48;99099.06;;;16.88;40.00
75247;BME280;63844;50.042;19.224;2023-05-10T09:18:15;99101.96;;;17.01;39.85
75247;BME280;63844;50.042;19.224;2023-05-10T09:20:41;99102.56;;;17.08;39.98
75247;BME280;63844;50.042;19.224;2023-05-10T09:23:08;99097.77;;;17.10;40.05
75247;BME280;63844;50.042;19.224;2023-05-10T09:25:34;99096.23;;;17.19;40.49
75247;BME280;63844;50.042;19.224;2023-05-10T09:28:01;99095.40;;;17.20;40.38
75247;BME280;63844;50.042;19.224;2023-05-10T09:30:29;99087.95;;;17.24;40.73
75247;BME280;63844;50.042;19.224;2023-05-10T09:32:58;99093.74;;;17.40;40.66
75247;BME280;63844;50.042;19.224;2023-05-10T09:35:28;99089.37;;;17.41;39.92
75247;BME280;63844;50.042;19.224;2023-05-10T09:38:00;99089.85;;;17.42;40.69
75247;BME280;63844;50.042;19.224;2023-05-10T09:40:27;99089.38;;;17.51;41.27
75247;BME280;63844;50.042;19.224;2023-05-10T09:43:03;99091.66;;;17.66;41.38
75247;BME280;63844;50.042;19.224;2023-05-10T09:45:31;99089.01;;;17.66;40.89
75247;BME280;63844;50.042;19.224;2023-05-10T09:47:59;99089.41;;;17.67;40.91
75247;BME280;63844;50.042;19.224;2023-05-10T09:50:26;99090.36;;;17.74;41.34
75247;BME280;63844;50.042;19.224;2023-05-10T09:52:55;99084.98;;;17.81;41.27
75247;BME280;63844;50.042;19.224;2023-05-10T09:55:25;99083.41;;;17.92;41.40
75247;BME280;63844;50.042;19.224;2023-05-10T09:58:00;99079.27;;;17.95;39.96
75247;BME280;63844;50.042;19.224;2023-05-10T10:00:27;99078.49;;;18.02;41.60
75247;BME280;63844;50.042;19.224;2023-05-10T10:02:56;99078.00;;;18.11;40.90
75247;BME280;63844;50.042;19.224;2023-05-10T10:05:34;99077.97;;;18.13;41.74
75247;BME280;63844;50.042;19.224;2023-05-10T10:08:03;99074.66;;;18.25;40.82
75247;BME280;63844;50.042;19.224;2023-05-10T10:10:31;99072.48;;;18.31;41.65
75247;BME280;63844;50.042;19.224;2023-05-10T10:12:59;99069.98;;;18.29;40.44
75247;BME280;63844;50.042;19.224;2023-05-10T10:15:26;99068.62;;;18.34;39.90
75247;BME280;63844;50.042;19.224;2023-05-10T10:17:53;99066.56;;;18.38;40.19
75247;BME280;63844;50.042;19.224;2023-05-10T10:20:21;99060.44;;;18.48;40.80
75247;BME280;63844;50.042;19.224;2023-05-10T10:22:48;99055.77;;;18.57;40.52
75247;BME280;63844;50.042;19.224;2023-05-10T10:25:16;99051.11;;;18.64;39.53
75247;BME280;63844;50.042;19.224;2023-05-10T10:30:34;99052.60;;;18.75;39.84
75247;BME280;63844;50.042;19.224;2023-05-10T10:33:29;99052.98;;;18.80;39.49
75247;BME280;63844;50.042;19.224;2023-05-10T10:36:01;99048.52;;;18.80;39.45
75247;BME280;63844;50.042;19.224;2023-05-10T10:41:31;99038.62;;;18.75;40.17
75247;BME280;63844;50.042;19.224;2023-05-10T10:47:22;99025.11;;;19.02;39.72
75247;BME280;63844;50.042;19.224;2023-05-10T10:50:06;99021.05;;;19.11;39.45
75247;BME280;63844;50.042;19.224;2023-05-10T10:52:37;99020.55;;;19.11;39.18
75247;BME280;63844;50.042;19.224;2023-05-10T10:55:19;99021.63;;;19.19;40.53
75247;BME280;63844;50.042;19.224;2023-05-10T10:57:51;99020.55;;;19.26;39.52
75247;BME280;63844;50.042;19.224;2023-05-10T11:00:28;99015.12;;;19.34;39.13
75247;BME280;63844;50.042;19.224;2023-05-10T11:02:58;99017.06;;;19.37;38.53
75247;BME280;63844;50.042;19.224;2023-05-10T11:07:57;99017.83;;;19.45;38.59
75247;BME280;63844;50.042;19.224;2023-05-10T11:10:25;99013.00;;;19.47;37.98
75247;BME280;63844;50.042;19.224;2023-05-10T11:15:29;99012.79;;;19.42;36.31
75247;BME280;63844;50.042;19.224;2023-05-10T11:17:56;99010.38;;;19.48;38.11
75247;BME280;63844;50.042;19.224;2023-05-10T11:20:22;99012.04;;;19.59;37.67
75247;BME280;63844;50.042;19.224;2023-05-10T11:22:54;99015.33;;;19.69;38.40
75247;BME280;63844;50.042;19.224;2023-05-10T11:25:26;99007.64;;;19.65;37.23
75247;BME280;63844;50.042;19.224;2023-05-10T11:27:53;99009.92;;;19.74;36.96
75247;BME280;63844;50.042;19.224;2023-05-10T11:30:19;98999.92;;;19.70;37.20
75247;BME280;63844;50.042;19.224;2023-05-10T11:32:46;99007.95;;;19.74;37.55
75247;BME280;63844;50.042;19.224;2023-05-10T11:35:13;99008.02;;;19.87;37.58
75247;BME280;63844;50.042;19.224;2023-05-10T11:37:41;99003.83;;;19.97;37.00
75247;BME280;63844;50.042;19.224;2023-05-10T11:40:10;98998.09;;;19.93;36.71
75247;BME280;63844;50.042;19.224;2023-05-10T11:42:37;98997.16;;;20.05;37.06
75247;BME280;63844;50.042;19.224;2023-05-10T11:45:04;98998.98;;;20.16;37.32
75247;BME280;63844;50.042;19.224;2023-05-10T11:47:31;99004.05;;;20.26;36.28
75247;BME280;63844;50.042;19.224;2023-05-10T11:49:58;99000.84;;;20.35;36.25
75247;BME280;63844;50.042;19.224;2023-05-10T11:52:25;99001.81;;;20.39;35.71
75247;BME280;63844;50.042;19.224;2023-05-10T11:54:52;98997.08;;;20.46;35.84
75247;BME280;63844;50.042;19.224;2023-05-10T11:57:20;98996.00;;;20.40;35.54
75247;BME280;63844;50.042;19.224;2023-05-10T11:59:47;99000.67;;;20.53;35.96
75247;BME280;63844;50.042;19.224;2023-05-10T12:02:13;98997.91;;;20.64;35.92
75247;BME280;63844;50.042;19.224;2023-05-10T12:04:41;98994.77;;;20.70;35.97
75247;BME280;63844;50.042;19.224;2023-05-10T12:07:09;98992.06;;;20.73;36.42
75247;BME280;63844;50.042;19.224;2023-05-10T12:09:35;98994.61;;;20.91;35.85
75247;BME280;63844;50.042;19.224;2023-05-10T12:12:02;98994.95;;;20.90;33.76
75247;BME280;63844;50.042;19.224;2023-05-10T12:14:28;98997.45;;;20.96;34.35
75247;BME280;63844;50.042;19.224;2023-05-10T12:16:59;98996.14;;;21.02;33.80
75247;BME280;63844;50.042;19.224;2023-05-10T12:19:26;98991.19;;;21.19;34.27
75247;BME280;63844;50.042;19.224;2023-05-10T12:21:52;98982.34;;;21.39;34.48
75247;BME280;63844;50.042;19.224;2023-05-10T12:24:19;98988.47;;;21.62;34.42
75247;BME280;63844;50.042;19.224;2023-05-10T12:26:47;98985.45;;;21.79;33.90
75247;BME280;63844;50.042;19.224;2023-05-10T12:29:16;98985.62;;;21.92;33.40
75247;BME280;63844;50.042;19.224;2023-05-10T12:31:54;98986.10;;;21.97;33.17
75247;BME280;63844;50.042;19.224;2023-05-10T12:36:52;98985.62;;;22.22;32.80
75247;BME280;63844;50.042;19.224;2023-05-10T12:39:19;98984.59;;;22.28;32.76
75247;BME280;63844;50.042;19.224;2023-05-10T12:41:45;98981.23;;;22.39;32.36
75247;BME280;63844;50.042;19.224;2023-05-10T12:44:12;98975.67;;;22.32;32.05
75247;BME280;63844;50.042;19.224;2023-05-10T12:46:38;98970.29;;;22.46;32.16
75247;BME280;63844;50.042;19.224;2023-05-10T12:49:05;98968.94;;;22.62;32.38
75247;BME280;63844;50.042;19.224;2023-05-10T12:51:31;98967.14;;;22.73;31.33
75247;BME280;63844;50.042;19.224;2023-05-10T12:53:58;98965.18;;;22.92;31.19
75247;BME280;63844;50.042;19.224;2023-05-10T12:56:24;98961.45;;;23.04;31.13
75247;BME280;63844;50.042;19.224;2023-05-10T12:58:51;98962.91;;;23.22;31.55
75247;BME280;63844;50.042;19.224;2023-05-10T13:01:18;98961.20;;;23.18;31.45
75247;BME280;63844;50.042;19.224;2023-05-10T13:03:45;98956.38;;;23.25;30.78
75247;BME280;63844;50.042;19.224;2023-05-10T13:06:13;98963.50;;;23.20;31.34
75247;BME280;63844;50.042;19.224;2023-05-10T13:08:39;98968.55;;;22.79;31.12
75247;BME280;63844;50.042;19.224;2023-05-10T13:11:06;98967.22;;;22.61;31.44
75247;BME280;63844;50.042;19.224;2023-05-10T13:13:33;98956.72;;;22.52;30.81
75247;BME280;63844;50.042;19.224;2023-05-10T13:15:59;98964.48;;;22.17;31.57
75247;BME280;63844;50.042;19.224;2023-05-10T13:18:26;98962.92;;;22.15;32.12
75247;BME280;63844;50.042;19.224;2023-05-10T13:20:53;98957.92;;;22.04;31.77
75247;BME280;63844;50.042;19.224;2023-05-10T13:23:20;98951.58;;;22.12;32.03